METAR Data
IDs: Format: Raw Decoded Include TAF

Data at: 0752 UTC 08 May 2021

KERV 080735Z AUTO 15010KT 10SM OVC015 18/16 A3001 RMK AO2 T01800157
KERV 080715Z AUTO 16010KT 10SM OVC015 18/16 A3002 RMK AO2 T01800156
KERV 080655Z AUTO 15015G21KT 10SM OVC015 18/16 A3002 RMK AO2 T01810158
KERV 080635Z AUTO 17009G16KT 10SM OVC015 18/16 A3005 RMK AO2 T01830158
KERV 080615Z AUTO 18010G16KT 10SM OVC017 19/16 A3005 RMK AO2 T01900163
KERV 080555Z AUTO 16012KT 10SM BKN017 19/16 A3005 RMK AO2 T01900162 10275 20190 402900113
KERV 080535Z AUTO 16010KT 10SM CLR 19/16 A3005 RMK AO2 T01900159
KERV 080515Z AUTO 15011G16KT 10SM CLR 19/16 A3006 RMK AO2 T01940158
KERV 080455Z AUTO 15012KT 10SM CLR 20/16 A3005 RMK AO2 T02010158
KERV 080435Z AUTO 16012G16KT 10SM CLR 21/15 A3005 RMK AO2 T02050153
KERV 080415Z AUTO 15011KT 10SM CLR 22/15 A3004 RMK AO2 T02190154
KERV 080355Z AUTO 16011G15KT 10SM CLR 22/15 A3004 RMK AO2 T02200145

KT82 080735Z AUTO 17006KT 10SM CLR 17/15 A3001 RMK AO2 T01720150
KT82 080715Z AUTO 18006KT 10SM CLR 18/15 A3002 RMK AO2 T01750150
KT82 080655Z AUTO 16005KT 10SM CLR 18/15 A3001 RMK AO2 T01760150
KT82 080635Z AUTO 17007KT 10SM CLR 18/15 A3004 RMK AO2 T01780149
KT82 080615Z AUTO 17008KT 10SM SCT016 18/15 A3004 RMK AO2 T01820146
KT82 080555Z AUTO 18008KT 10SM CLR 18/14 A3005 RMK AO2 T01840141 10265 20183 402800110
KT82 080535Z AUTO 19007KT 10SM CLR 19/14 A3005 RMK AO2 T01890140
KT82 080515Z AUTO 17007KT 10SM CLR 19/14 A3005 RMK AO2 T01900137
KT82 080455Z AUTO 17008KT 10SM CLR 19/13 A3004 RMK AO2 T01940131
KT82 080435Z AUTO 16005KT 10SM CLR 20/12 A3005 RMK AO2 T01960122
KT82 080415Z AUTO 00000KT 10SM CLR 20/12 A3005 RMK AO2 T02010119
KT82 080355Z AUTO 16004KT 10SM CLR 21/12 A3004 RMK AO2 T02070120

KHDO 080651Z AUTO 15006KT 10SM FEW015 19/17 A3002 RMK AO2 SLP152 T01890167 $
KHDO 080551Z AUTO 15006KT 10SM CLR 20/17 A3004 RMK AO2 SLP157 T02000167 10294 20200 403060161 51014 $
KHDO 080451Z AUTO 14014KT 10SM CLR 21/17 A3003 RMK AO2 SLP156 T02110167 $